sensor_id;sensor_type;location;lat;lon;timestamp;pressure;altitude;pressure_sealevel;temperature;humidity
21449;BME280;10885;52.830;13.788;2024-03-17T04:41:21;101692.38;;;3.95;75.05
21449;BME280;10885;52.830;13.788;2024-03-17T04:46:23;101694.03;;;3.95;74.77
21449;BME280;10885;52.830;13.788;2024-03-17T04:51:25;101701.88;;;3.89;74.47
21449;BME280;10885;52.830;13.788;2024-03-17T04:56:27;101711.13;;;3.89;75.23
21449;BME280;10885;52.830;13.788;2024-03-17T05:01:28;101710.53;;;3.91;74.06
21449;BME280;10885;52.830;13.788;2024-03-17T05:06:32;101726.03;;;3.94;74.23
21449;BME280;10885;52.830;13.788;2024-03-17T05:11:34;101724.97;;;3.92;74.18
21449;BME280;10885;52.830;13.788;2024-03-17T05:16:36;101729.50;;;3.95;74.58
21449;BME280;10885;52.830;13.788;2024-03-17T05:21:38;101718.94;;;3.99;74.08
21449;BME280;10885;52.830;13.788;2024-03-17T05:26:40;101730.31;;;4.03;74.50
21449;BME280;10885;52.830;13.788;2024-03-17T05:31:43;101727.91;;;4.04;73.73
21449;BME280;10885;52.830;13.788;2024-03-17T05:36:45;101747.38;;;3.96;74.40
21449;BME280;10885;52.830;13.788;2024-03-17T05:41:48;101753.22;;;4.04;74.49
21449;BME280;10885;52.830;13.788;2024-03-17T09:14:04;101872.75;;;16.41;36.72
21449;BME280;10885;52.830;13.788;2024-03-17T09:19:08;101881.59;;;23.29;31.27
21449;BME280;10885;52.830;13.788;2024-03-17T09:24:10;101893.25;;;24.35;25.52
21449;BME280;10885;52.830;13.788;2024-03-17T09:29:12;101886.69;;;25.67;22.99
21449;BME280;10885;52.830;13.788;2024-03-17T09:34:14;101897.41;;;21.10;27.41
21449;BME280;10885;52.830;13.788;2024-03-17T09:39:16;101909.22;;;26.48;21.60
21449;BME280;10885;52.830;13.788;2024-03-17T09:44:17;101902.69;;;29.12;19.37
21449;BME280;10885;52.830;13.788;2024-03-17T09:49:20;101908.38;;;30.80;20.84
21449;BME280;10885;52.830;13.788;2024-03-17T09:54:23;101910.00;;;31.30;16.90
21449;BME280;10885;52.830;13.788;2024-03-17T09:59:24;101904.69;;;31.44;16.71
21449;BME280;10885;52.830;13.788;2024-03-17T10:04:32;101896.84;;;29.91;27.06
21449;BME280;10885;52.830;13.788;2024-03-17T10:09:35;101898.75;;;23.81;27.60
21449;BME280;10885;52.830;13.788;2024-03-17T10:14:37;101899.03;;;19.83;28.55
21449;BME280;10885;52.830;13.788;2024-03-17T10:19:39;101904.41;;;19.68;31.42
21449;BME280;10885;52.830;13.788;2024-03-17T10:24:41;101897.25;;;23.89;23.63
21449;BME280;10885;52.830;13.788;2024-03-17T10:29:43;101895.88;;;21.38;24.59
21449;BME280;10885;52.830;13.788;2024-03-17T10:34:45;101897.78;;;19.38;27.66
21449;BME280;10885;52.830;13.788;2024-03-17T10:39:50;101890.03;;;18.32;29.66
21449;BME280;10885;52.830;13.788;2024-03-17T10:44:52;101893.00;;;16.78;31.16
21449;BME280;10885;52.830;13.788;2024-03-17T10:49:56;101900.03;;;15.51;33.78
21449;BME280;10885;52.830;13.788;2024-03-17T10:55:01;101896.81;;;14.22;35.74
21449;BME280;10885;52.830;13.788;2024-03-17T11:00:07;101889.31;;;13.26;37.64
21449;BME280;10885;52.830;13.788;2024-03-17T11:05:27;101897.69;;;13.47;38.66
21449;BME280;10885;52.830;13.788;2024-03-17T11:10:34;101899.03;;;14.81;36.07
21449;BME280;10885;52.830;13.788;2024-03-17T11:15:38;101895.03;;;14.86;35.26
21449;BME280;10885;52.830;13.788;2024-03-17T11:20:42;101898.59;;;13.24;37.56
21449;BME280;10885;52.830;13.788;2024-03-17T11:25:52;101901.59;;;13.30;37.89
21449;BME280;10885;52.830;13.788;2024-03-17T11:30:54;101900.66;;;13.65;36.26
21449;BME280;10885;52.830;13.788;2024-03-17T11:46:42;101894.94;;;16.23;33.18
21449;BME280;10885;52.830;13.788;2024-03-17T11:51:47;101893.47;;;15.15;33.57
21449;BME280;10885;52.830;13.788;2024-03-17T11:56:51;101904.81;;;13.51;36.10
21449;BME280;10885;52.830;13.788;2024-03-17T12:01:53;101902.06;;;12.66;37.44
21449;BME280;10885;52.830;13.788;2024-03-17T12:06:56;101900.38;;;12.78;38.09
21449;BME280;10885;52.830;13.788;2024-03-17T12:12:08;101899.81;;;14.93;36.18
21449;BME280;10885;52.830;13.788;2024-03-17T12:17:12;101897.63;;;14.73;34.12
21449;BME280;10885;52.830;13.788;2024-03-17T12:22:20;101898.84;;;13.64;35.76
21449;BME280;10885;52.830;13.788;2024-03-17T12:27:24;101891.91;;;12.91;37.11
21449;BME280;10885;52.830;13.788;2024-03-17T12:32:26;101895.50;;;13.05;36.65
21449;BME280;10885;52.830;13.788;2024-03-17T12:37:28;101890.63;;;13.82;36.23
21449;BME280;10885;52.830;13.788;2024-03-17T12:42:35;101886.91;;;14.28;35.36
21449;BME280;10885;52.830;13.788;2024-03-17T12:47:39;101884.88;;;13.61;35.78
21449;BME280;10885;52.830;13.788;2024-03-17T12:52:51;101881.28;;;12.74;37.64
21449;BME280;10885;52.830;13.788;2024-03-17T13:03:36;101861.38;;;14.97;34.90
21449;BME280;10885;52.830;13.788;2024-03-17T13:08:38;101864.50;;;14.92;32.80
21449;BME280;10885;52.830;13.788;2024-03-17T13:13:41;101864.03;;;14.85;33.44
21449;BME280;10885;52.830;13.788;2024-03-17T13:18:43;101874.97;;;16.20;34.05
21449;BME280;10885;52.830;13.788;2024-03-17T13:23:44;101875.06;;;16.96;32.05
21449;BME280;10885;52.830;13.788;2024-03-17T13:28:46;101877.38;;;16.17;33.37
21449;BME280;10885;52.830;13.788;2024-03-17T13:33:47;101881.56;;;14.90;34.01
21449;BME280;10885;52.830;13.788;2024-03-17T13:38:52;101871.69;;;13.56;35.88
21449;BME280;10885;52.830;13.788;2024-03-17T13:43:54;101879.16;;;12.69;36.95
21449;BME280;10885;52.830;13.788;2024-03-17T13:49:06;101873.41;;;12.38;37.90
21449;BME280;10885;52.830;13.788;2024-03-17T13:54:08;101862.72;;;12.67;38.11
21449;BME280;10885;52.830;13.788;2024-03-17T13:59:10;101858.81;;;12.37;38.39
21449;BME280;10885;52.830;13.788;2024-03-17T14:04:16;101869.31;;;12.06;39.03
21449;BME280;10885;52.830;13.788;2024-03-17T14:09:17;101864.50;;;11.65;40.29
21449;BME280;10885;52.830;13.788;2024-03-17T14:14:19;101860.78;;;11.61;40.20
21449;BME280;10885;52.830;13.788;2024-03-17T14:19:21;101858.03;;;12.04;39.03
21449;BME280;10885;52.830;13.788;2024-03-17T14:24:23;101862.94;;;11.67;39.31
21449;BME280;10885;52.830;13.788;2024-03-17T14:29:24;101860.31;;;12.11;39.14
21449;BME280;10885;52.830;13.788;2024-03-17T14:34:26;101857.75;;;12.92;38.05
21449;BME280;10885;52.830;13.788;2024-03-17T14:39:31;101847.66;;;13.07;37.05
21449;BME280;10885;52.830;13.788;2024-03-17T14:44:36;101858.72;;;12.59;37.81
21449;BME280;10885;52.830;13.788;2024-03-17T14:49:38;101858.69;;;12.47;37.73
21449;BME280;10885;52.830;13.788;2024-03-17T14:54:39;101853.69;;;12.72;38.04
21449;BME280;10885;52.830;13.788;2024-03-17T14:59:41;101856.22;;;12.37;37.92
21449;BME280;10885;52.830;13.788;2024-03-17T15:04:43;101854.63;;;12.15;37.95
21449;BME280;10885;52.830;13.788;2024-03-17T15:09:44;101862.88;;;11.77;39.04
21449;BME280;10885;52.830;13.788;2024-03-17T15:14:46;101860.31;;;11.77;38.96
21449;BME280;10885;52.830;13.788;2024-03-17T15:19:48;101847.22;;;12.08;39.42
21449;BME280;10885;52.830;13.788;2024-03-17T15:24:50;101848.72;;;12.28;38.53
21449;BME280;10885;52.830;13.788;2024-03-17T15:29:51;101850.22;;;12.36;36.43
21449;BME280;10885;52.830;13.788;2024-03-17T15:34:53;101849.31;;;12.47;37.01
21449;BME280;10885;52.830;13.788;2024-03-17T15:39:55;101853.00;;;12.39;37.17
21449;BME280;10885;52.830;13.788;2024-03-17T15:44:57;101849.94;;;12.21;37.24
21449;BME280;10885;52.830;13.788;2024-03-17T15:49:58;101850.25;;;11.80;37.76
21449;BME280;10885;52.830;13.788;2024-03-17T15:55:04;101845.03;;;11.02;38.96
21449;BME280;10885;52.830;13.788;2024-03-17T16:00:06;101851.03;;;10.60;40.51
21449;BME280;10885;52.830;13.788;2024-03-17T16:05:18;101848.03;;;10.23;40.83
21449;BME280;10885;52.830;13.788;2024-03-17T16:10:20;101861.53;;;9.61;42.88
21449;BME280;10885;52.830;13.788;2024-03-17T16:15:25;101867.47;;;9.11;44.17
21449;BME280;10885;52.830;13.788;2024-03-17T16:20:49;101879.97;;;9.08;45.27
21449;BME280;10885;52.830;13.788;2024-03-17T16:25:57;101873.50;;;9.12;44.79
21449;BME280;10885;52.830;13.788;2024-03-17T16:30:59;101875.09;;;9.01;45.05
21449;BME280;10885;52.830;13.788;2024-03-17T16:36:02;101880.72;;;8.78;45.37
21449;BME280;10885;52.830;13.788;2024-03-17T16:41:05;101884.78;;;8.57;46.07
21449;BME280;10885;52.830;13.788;2024-03-17T16:51:28;101891.13;;;8.05;47.79
21449;BME280;10885;52.830;13.788;2024-03-17T16:56:30;101888.53;;;7.86;47.58
21449;BME280;10885;52.830;13.788;2024-03-17T17:01:33;101890.59;;;7.63;48.90
21449;BME280;10885;52.830;13.788;2024-03-17T17:06:38;101887.22;;;7.36;49.58
21449;BME280;10885;52.830;13.788;2024-03-17T17:11:39;101885.63;;;7.19;50.26
21449;BME280;10885;52.830;13.788;2024-03-17T17:16:41;101891.75;;;7.12;50.46
21449;BME280;10885;52.830;13.788;2024-03-17T17:21:43;101894.34;;;7.04;51.21
21449;BME280;10885;52.830;13.788;2024-03-17T17:26:51;101894.59;;;6.81;51.98
21449;BME280;10885;52.830;13.788;2024-03-17T17:31:55;101899.13;;;6.66;52.88
21449;BME280;10885;52.830;13.788;2024-03-17T17:36:57;101899.09;;;6.57;52.86
21449;BME280;10885;52.830;13.788;2024-03-17T17:41:58;101897.88;;;6.36;53.55
21449;BME280;10885;52.830;13.788;2024-03-17T17:47:05;101902.03;;;6.18;54.63
21449;BME280;10885;52.830;13.788;2024-03-17T17:52:07;101906.97;;;6.08;54.99
21449;BME280;10885;52.830;13.788;2024-03-17T17:57:09;101900.03;;;5.98;55.80
21449;BME280;10885;52.830;13.788;2024-03-17T18:02:10;101900.00;;;5.89;55.39
21449;BME280;10885;52.830;13.788;2024-03-17T18:07:12;101909.84;;;5.77;56.19
21449;BME280;10885;52.830;13.788;2024-03-17T18:12:14;101909.50;;;5.66;55.95
21449;BME280;10885;52.830;13.788;2024-03-17T18:17:15;101912.09;;;5.50;56.87
21449;BME280;10885;52.830;13.788;2024-03-17T18:22:19;101907.53;;;5.30;57.61
21449;BME280;10885;52.830;13.788;2024-03-17T18:27:21;101899.91;;;5.30;57.66
21449;BME280;10885;52.830;13.788;2024-03-17T18:32:22;101908.06;;;5.27;57.57
21449;BME280;10885;52.830;13.788;2024-03-17T18:37:24;101913.97;;;5.10;58.16
21449;BME280;10885;52.830;13.788;2024-03-17T18:42:28;101911.03;;;4.98;59.05
21449;BME280;10885;52.830;13.788;2024-03-17T18:47:30;101912.19;;;4.77;59.08
21449;BME280;10885;52.830;13.788;2024-03-17T18:52:31;101911.66;;;4.64;59.99
21449;BME280;10885;52.830;13.788;2024-03-17T18:57:33;101910.50;;;4.53;60.52
21449;BME280;10885;52.830;13.788;2024-03-17T19:02:35;101910.97;;;4.42;60.30
21449;BME280;10885;52.830;13.788;2024-03-17T19:07:37;101909.50;;;4.44;61.86
21449;BME280;10885;52.830;13.788;2024-03-17T19:12:39;101914.50;;;4.35;61.90
21449;BME280;10885;52.830;13.788;2024-03-17T19:17:40;101915.56;;;4.22;62.88
21449;BME280;10885;52.830;13.788;2024-03-17T19:22:42;101920.38;;;4.11;63.85
21449;BME280;10885;52.830;13.788;2024-03-17T19:27:44;101928.53;;;4.09;64.51
21449;BME280;10885;52.830;13.788;2024-03-17T19:32:46;101947.81;;;3.99;64.87
21449;BME280;10885;52.830;13.788;2024-03-17T19:37:50;101951.72;;;3.89;65.41
21449;BME280;10885;52.830;13.788;2024-03-17T19:42:52;101964.06;;;3.78;66.64
21449;BME280;10885;52.830;13.788;2024-03-17T19:47:54;101963.38;;;3.72;66.86
21449;BME280;10885;52.830;13.788;2024-03-17T19:52:56;101967.53;;;3.79;66.62
21449;BME280;10885;52.830;13.788;2024-03-17T19:57:57;101956.25;;;3.61;67.42
21449;BME280;10885;52.830;13.788;2024-03-17T20:02:59;101970.41;;;3.52;67.99
21449;BME280;10885;52.830;13.788;2024-03-17T20:08:00;101974.41;;;3.50;66.95
21449;BME280;10885;52.830;13.788;2024-03-17T20:13:02;101980.06;;;3.40;67.70
21449;BME280;10885;52.830;13.788;2024-03-17T20:18:06;101974.00;;;3.31;67.92
21449;BME280;10885;52.830;13.788;2024-03-17T20:23:09;101975.81;;;3.25;67.64
21449;BME280;10885;52.830;13.788;2024-03-17T20:28:13;101981.59;;;3.24;67.60
21449;BME280;10885;52.830;13.788;2024-03-17T20:33:15;101985.41;;;3.20;67.14
21449;BME280;10885;52.830;13.788;2024-03-17T20:38:18;101982.22;;;3.07;67.90
21449;BME280;10885;52.830;13.788;2024-03-17T20:43:20;101981.13;;;3.05;68.33
21449;BME280;10885;52.830;13.788;2024-03-17T20:48:22;101963.44;;;3.05;68.10
21449;BME280;10885;52.830;13.788;2024-03-17T20:53:24;101965.44;;;3.00;67.67
21449;BME280;10885;52.830;13.788;2024-03-17T20:58:28;101966.22;;;2.85;67.67
21449;BME280;10885;52.830;13.788;2024-03-17T21:03:30;101965.16;;;2.83;67.73
21449;BME280;10885;52.830;13.788;2024-03-17T21:08:31;101971.16;;;2.76;67.94
